createdAt,value
2022-08-04T00:00:37.163Z,21.80
2022-08-04T00:03:23.223Z,21.70
2022-08-04T00:06:12.919Z,21.60
2022-08-04T00:08:49.494Z,21.60
2022-08-04T00:11:17.067Z,21.50
2022-08-04T00:13:58.071Z,21.70
2022-08-04T00:16:13.239Z,21.70
2022-08-04T00:18:40.821Z,21.60
2022-08-04T00:21:09.193Z,21.50
2022-08-04T00:24:12.336Z,21.50
2022-08-04T00:26:04.385Z,21.50
2022-08-04T00:28:31.970Z,21.50
2022-08-04T00:30:59.582Z,21.40
2022-08-04T00:33:27.156Z,21.40
2022-08-04T00:35:54.862Z,21.30
2022-08-04T00:38:23.644Z,21.30
2022-08-04T00:41:09.927Z,21.30
2022-08-04T00:43:43.044Z,21.20
2022-08-04T00:46:20.251Z,21.10
2022-08-04T00:49:08.851Z,21.10
2022-08-04T00:51:42.137Z,21.00
2022-08-04T00:54:12.563Z,21.00
2022-08-04T00:56:52.208Z,20.90
2022-08-04T00:59:34.651Z,20.90
2022-08-04T01:02:18.657Z,21.10
2022-08-04T01:04:46.231Z,21.10
2022-08-04T01:07:22.429Z,21.10
2022-08-04T01:10:05.236Z,21.30
2022-08-04T01:13:01.640Z,21.00
2022-08-04T01:15:59.632Z,21.00
2022-08-04T01:18:42.257Z,20.90
2022-08-04T01:21:47.768Z,21.00
2022-08-04T01:24:24.589Z,21.00
2022-08-04T01:26:58.669Z,20.80
2022-08-04T01:29:27.458Z,20.70
2022-08-04T01:31:56.233Z,20.70
2022-08-04T01:34:24.205Z,20.60
2022-08-04T01:36:51.834Z,20.50
2022-08-04T01:39:38.153Z,20.90
2022-08-04T01:42:05.737Z,20.90
2022-08-04T01:44:33.321Z,20.80
2022-08-04T01:47:00.936Z,20.90
2022-08-04T01:49:40.418Z,20.80
2022-08-04T01:52:01.469Z,20.70
2022-08-04T01:54:29.063Z,20.60
2022-08-04T01:56:56.657Z,20.50
2022-08-04T01:59:24.976Z,20.40
2022-08-04T02:01:52.683Z,20.30
2022-08-04T02:04:23.345Z,20.30
2022-08-04T02:06:53.506Z,20.20
2022-08-04T02:09:24.169Z,20.20
2022-08-04T02:12:06.443Z,20.40
2022-08-04T02:14:42.546Z,20.30
2022-08-04T02:17:13.173Z,20.20
2022-08-04T02:19:56.564Z,20.00
2022-08-04T02:22:24.139Z,20.00
2022-08-04T02:24:51.712Z,19.90
2022-08-04T02:27:19.498Z,19.90
2022-08-04T02:29:46.910Z,19.80
2022-08-04T02:32:27.136Z,19.70
2022-08-04T02:34:54.719Z,19.70
2022-08-04T02:37:22.514Z,19.70
2022-08-04T02:39:49.934Z,19.70
2022-08-04T02:42:17.513Z,19.60
2022-08-04T02:44:45.043Z,19.60
2022-08-04T02:47:12.682Z,19.60
2022-08-04T02:49:41.225Z,19.50
2022-08-04T02:52:07.795Z,19.80
2022-08-04T02:54:35.420Z,19.70
2022-08-04T02:57:07.989Z,19.60
2022-08-04T02:59:31.344Z,19.60
2022-08-04T03:01:59.707Z,19.70
2022-08-04T03:04:48.578Z,19.70
2022-08-04T03:07:54.955Z,19.80
2022-08-04T03:10:38.058Z,19.70
2022-08-04T03:13:29.783Z,19.60
2022-08-04T03:16:03.416Z,19.50
2022-08-04T03:18:53.108Z,19.80
2022-08-04T03:21:41.714Z,19.80
2022-08-04T03:24:30.181Z,19.70
2022-08-04T03:26:58.533Z,19.70
2022-08-04T03:30:03.129Z,19.60
2022-08-04T03:32:33.355Z,19.50
2022-08-04T03:35:31.856Z,19.40
2022-08-04T03:38:14.434Z,19.30
2022-08-04T03:41:10.694Z,19.20
2022-08-04T03:43:59.106Z,19.10
2022-08-04T03:46:41.706Z,19.00
2022-08-04T03:49:28.283Z,18.90
2022-08-04T03:52:20.305Z,18.90
2022-08-04T03:54:59.625Z,18.80
2022-08-04T03:57:39.330Z,18.80
2022-08-04T04:00:10.055Z,19.00
2022-08-04T04:02:53.367Z,18.90
2022-08-04T04:06:00.458Z,18.90
2022-08-04T04:08:12.577Z,18.80
2022-08-04T04:10:55.289Z,18.70
2022-08-04T04:13:41.522Z,18.70
2022-08-04T04:16:15.067Z,18.60
2022-08-04T04:18:54.312Z,18.60
2022-08-04T04:21:28.345Z,18.50
2022-08-04T04:24:14.096Z,18.50
2022-08-04T04:26:49.230Z,18.50
2022-08-04T04:29:34.656Z,18.40
2022-08-04T04:32:05.165Z,18.40
2022-08-04T04:34:35.446Z,18.40
2022-08-04T04:37:15.082Z,18.40
2022-08-04T04:40:07.035Z,18.40
2022-08-04T04:42:36.700Z,18.70
2022-08-04T04:45:06.741Z,18.70
2022-08-04T04:48:08.595Z,18.70
2022-08-04T04:50:36.994Z,19.10
2022-08-04T04:53:10.364Z,19.10
2022-08-04T04:55:42.992Z,19.00
2022-08-04T04:58:08.979Z,18.80
2022-08-04T05:01:12.885Z,18.80
2022-08-04T05:04:17.088Z,18.70
2022-08-04T05:06:44.711Z,19.00
2022-08-04T05:09:49.641Z,18.90
2022-08-04T05:14:26.378Z,18.80
2022-08-04T05:15:05.869Z,18.80
2022-08-04T05:17:39.037Z,18.80
2022-08-04T05:20:07.408Z,18.90
2022-08-04T05:22:34.983Z,18.90
2022-08-04T05:25:05.580Z,18.90
2022-08-04T05:27:51.172Z,18.90
2022-08-04T05:30:19.513Z,19.10
2022-08-04T05:32:59.090Z,19.10
2022-08-04T05:36:15.980Z,19.20
2022-08-04T05:38:01.507Z,19.20
2022-08-04T05:40:19.558Z,19.30
2022-08-04T05:42:47.163Z,19.40
2022-08-04T05:45:14.737Z,19.40
2022-08-04T05:47:43.078Z,19.80
2022-08-04T05:50:10.682Z,19.80
2022-08-04T05:52:39.034Z,20.00
2022-08-04T05:55:06.814Z,19.90
2022-08-04T05:57:34.467Z,20.00
2022-08-04T06:00:10.486Z,20.10
2022-08-04T06:02:30.388Z,20.40
2022-08-04T06:04:57.987Z,20.40
2022-08-04T06:07:26.320Z,20.70
2022-08-04T06:09:53.924Z,20.70
2022-08-04T06:12:24.480Z,20.70
2022-08-04T06:14:52.083Z,20.90
2022-08-04T06:19:58.817Z,21.10
2022-08-04T06:20:00.401Z,21.10
2022-08-04T06:22:20.518Z,21.10
2022-08-04T06:24:48.097Z,21.10
2022-08-04T06:27:15.708Z,21.10
2022-08-04T06:29:50.636Z,21.20
2022-08-04T06:32:27.963Z,21.20
2022-08-04T06:34:41.263Z,21.20
2022-08-04T06:37:08.877Z,21.30
2022-08-04T06:39:37.268Z,21.60
2022-08-04T06:42:21.522Z,21.60
2022-08-04T06:44:32.377Z,21.70
2022-08-04T06:46:59.962Z,22.00
2022-08-04T06:49:27.594Z,22.00
2022-08-04T06:51:55.179Z,22.00
2022-08-04T06:54:22.745Z,22.10
2022-08-04T06:56:50.627Z,22.20
2022-08-04T06:59:18.206Z,22.20
2022-08-04T07:01:46.616Z,22.40
2022-08-04T07:04:14.173Z,22.40
2022-08-04T07:06:41.746Z,22.50
2022-08-04T07:09:09.330Z,22.60
2022-08-04T07:11:39.743Z,22.70
2022-08-04T07:14:04.518Z,22.80
2022-08-04T07:16:32.092Z,23.10
2022-08-04T07:19:09.987Z,23.20
2022-08-04T07:21:27.312Z,23.30
2022-08-04T07:23:54.893Z,23.40
2022-08-04T07:26:22.508Z,23.50
2022-08-04T07:28:50.090Z,23.60
2022-08-04T07:31:33.172Z,23.80
2022-08-04T07:33:45.284Z,23.90
2022-08-04T07:36:12.871Z,24.00
2022-08-04T07:38:50.993Z,24.10
2022-08-04T07:43:35.663Z,24.40
2022-08-04T07:46:03.237Z,24.40
2022-08-04T07:48:30.851Z,24.50
2022-08-04T07:50:58.470Z,24.70
2022-08-04T07:53:54.766Z,24.70
2022-08-04T07:55:54.420Z,25.00
2022-08-04T07:58:22.773Z,25.10
2022-08-04T08:00:50.347Z,25.10
2022-08-04T08:03:18.014Z,25.20
2022-08-04T08:06:16.493Z,25.30
2022-08-04T08:08:13.118Z,25.40
2022-08-04T08:10:40.730Z,25.50
2022-08-04T08:13:08.306Z,25.70
2022-08-04T08:15:35.890Z,26.00
2022-08-04T08:18:03.769Z,26.10
2022-08-04T08:20:31.513Z,26.20
2022-08-04T08:22:59.757Z,26.50
2022-08-04T08:25:27.318Z,26.50
2022-08-04T08:27:55.929Z,26.60
2022-08-04T08:30:22.516Z,26.70
2022-08-04T08:32:50.080Z,26.80
2022-08-04T08:35:17.653Z,26.90
2022-08-04T08:37:47.680Z,27.00
2022-08-04T08:40:40.050Z,27.20
2022-08-04T08:42:54.614Z,27.30
2022-08-04T08:45:44.293Z,27.40
2022-08-04T08:48:36.241Z,27.50
2022-08-04T08:51:07.157Z,27.60
2022-08-04T08:53:49.769Z,27.70
2022-08-04T08:56:31.392Z,27.80
2022-08-04T08:59:15.048Z,28.30
2022-08-04T09:02:04.157Z,28.30
2022-08-04T09:04:56.061Z,28.50
2022-08-04T09:07:29.696Z,28.60
2022-08-04T09:10:09.578Z,28.80
2022-08-04T09:12:52.150Z,28.90
2022-08-04T09:15:25.225Z,29.10
2022-08-04T09:17:58.274Z,29.20
2022-08-04T09:20:25.848Z,29.50
2022-08-04T09:22:59.516Z,29.80
2022-08-04T09:25:45.719Z,30.20
2022-08-04T09:28:50.743Z,30.20
2022-08-04T09:30:58.543Z,30.40
2022-08-04T09:33:44.561Z,30.70
2022-08-04T09:36:25.613Z,30.90
2022-08-04T09:39:02.578Z,30.80
2022-08-04T09:41:53.991Z,30.90
2022-08-04T09:44:49.358Z,31.20
2022-08-04T09:46:54.604Z,31.30
2022-08-04T09:49:22.498Z,31.50
2022-08-04T09:51:58.143Z,31.60
2022-08-04T09:54:42.690Z,32.00
2022-08-04T09:57:16.289Z,32.00
2022-08-04T09:59:58.800Z,32.20
2022-08-04T10:02:26.385Z,32.30
2022-08-04T10:04:54.717Z,32.50
2022-08-04T10:07:28.435Z,32.50
2022-08-04T10:09:58.687Z,32.50
2022-08-04T10:12:48.385Z,32.60
2022-08-04T10:15:21.985Z,32.60
2022-08-04T10:18:01.601Z,32.70
2022-08-04T10:20:36.559Z,32.70
2022-08-04T10:23:16.205Z,32.80
2022-08-04T10:26:07.102Z,32.80
2022-08-04T10:28:17.114Z,32.90
2022-08-04T10:30:50.698Z,32.90
2022-08-04T10:33:26.727Z,33.00
2022-08-04T10:36:07.239Z,33.10
2022-08-04T10:38:37.484Z,33.30
2022-08-04T10:41:05.817Z,33.60
2022-08-04T10:43:36.469Z,33.60
2022-08-04T10:46:19.334Z,33.70
2022-08-04T10:49:08.069Z,33.70
2022-08-04T10:51:58.380Z,33.80
2022-08-04T10:54:19.584Z,33.80
2022-08-04T10:56:53.987Z,33.80
2022-08-04T10:59:39.749Z,33.80
2022-08-04T11:02:16.536Z,33.90
2022-08-04T11:04:43.157Z,33.90
2022-08-04T11:07:10.722Z,34.00
2022-08-04T11:09:38.297Z,34.00
2022-08-04T11:12:11.541Z,34.00
2022-08-04T11:14:44.741Z,34.10
2022-08-04T11:17:12.312Z,34.10
2022-08-04T11:19:53.905Z,34.10
2022-08-04T11:22:24.465Z,34.00
2022-08-04T11:25:14.758Z,34.20
2022-08-04T11:27:57.090Z,34.20
2022-08-04T11:30:24.702Z,34.20
2022-08-04T11:33:10.146Z,34.10
2022-08-04T11:35:56.604Z,34.10
2022-08-04T11:38:39.716Z,34.10
2022-08-04T11:41:10.157Z,34.20
2022-08-04T11:44:01.627Z,34.00
2022-08-04T11:46:27.349Z,34.00
2022-08-04T11:49:16.092Z,34.00
2022-08-04T11:51:43.710Z,33.90
2022-08-04T11:54:12.057Z,34.10
2022-08-04T11:56:39.631Z,34.10
2022-08-04T11:59:07.314Z,34.20
2022-08-04T12:01:43.771Z,34.30
2022-08-04T12:04:15.292Z,34.60
2022-08-04T12:06:50.939Z,34.90
2022-08-04T12:09:34.829Z,35.00
2022-08-04T12:12:27.196Z,35.20
2022-08-04T12:15:01.230Z,35.10
2022-08-04T12:17:33.673Z,35.10
2022-08-04T12:20:03.923Z,35.10
2022-08-04T12:22:29.847Z,35.00
2022-08-04T12:24:55.662Z,34.90
2022-08-04T12:27:30.633Z,34.90
2022-08-04T12:30:57.310Z,34.90
2022-08-04T12:32:25.013Z,35.20
2022-08-04T12:34:58.708Z,35.20
2022-08-04T12:37:44.006Z,35.20
2022-08-04T12:40:27.892Z,35.20
2022-08-04T12:42:56.005Z,35.30
2022-08-04T12:45:11.062Z,35.20
2022-08-04T12:47:38.923Z,35.30
2022-08-04T12:50:06.358Z,35.40
2022-08-04T12:52:59.155Z,35.50
2022-08-04T12:55:02.302Z,35.70
2022-08-04T12:57:29.878Z,35.60
2022-08-04T12:59:58.141Z,35.70
2022-08-04T13:02:27.626Z,35.70
2022-08-04T13:04:55.169Z,35.70
2022-08-04T13:07:23.008Z,35.70
2022-08-04T13:09:50.357Z,35.70
2022-08-04T13:12:31.915Z,35.80
2022-08-04T13:14:51.718Z,35.80
2022-08-04T13:17:19.647Z,35.80
2022-08-04T13:19:50.196Z,35.80
2022-08-04T13:22:26.498Z,35.80
2022-08-04T13:25:18.155Z,35.80
2022-08-04T13:27:22.112Z,35.90
2022-08-04T13:29:59.457Z,35.90
2022-08-04T13:32:18.325Z,36.00
2022-08-04T13:34:49.182Z,36.00
2022-08-04T13:37:20.908Z,36.20
2022-08-04T13:39:55.534Z,36.10
2022-08-04T13:42:16.044Z,36.30
2022-08-04T13:44:46.356Z,36.30
2022-08-04T13:47:14.790Z,36.50
2022-08-04T13:50:01.266Z,36.50
2022-08-04T13:52:11.187Z,36.50
2022-08-04T13:54:43.639Z,36.60
2022-08-04T13:57:20.071Z,36.60
2022-08-04T13:59:47.633Z,36.60
2022-08-04T14:02:25.046Z,37.10
2022-08-04T14:04:52.629Z,37.00
2022-08-04T14:07:20.934Z,37.10
2022-08-04T14:10:03.468Z,37.10
2022-08-04T14:12:38.843Z,37.10
2022-08-04T14:14:45.969Z,37.20
2022-08-04T14:17:19.687Z,37.30
2022-08-04T14:19:50.120Z,37.30
2022-08-04T14:22:27.545Z,37.20
2022-08-04T14:25:00.722Z,37.20
2022-08-04T14:27:31.012Z,37.10
2022-08-04T14:29:58.658Z,37.10
2022-08-04T14:32:27.173Z,36.90
2022-08-04T14:34:54.542Z,36.90
2022-08-04T14:37:22.116Z,36.90
2022-08-04T14:40:18.834Z,36.90
2022-08-04T14:42:19.757Z,36.70
2022-08-04T14:44:56.871Z,36.60
2022-08-04T14:47:39.708Z,36.60
2022-08-04T14:50:07.413Z,36.50
2022-08-04T14:52:34.975Z,36.40
2022-08-04T14:55:21.088Z,36.20
2022-08-04T14:58:33.694Z,36.10
2022-08-04T15:00:28.153Z,36.10
2022-08-04T15:02:58.427Z,36.00
2022-08-04T15:05:55.577Z,35.90
2022-08-04T15:07:53.609Z,35.70
2022-08-04T15:10:21.952Z,35.60
2022-08-04T15:12:49.536Z,35.50
2022-08-04T15:15:35.804Z,35.40
2022-08-04T15:17:44.772Z,35.50
2022-08-04T15:20:12.327Z,35.60
2022-08-04T15:22:41.092Z,35.50
2022-08-04T15:25:08.824Z,35.60
2022-08-04T15:27:36.398Z,35.40
2022-08-04T15:30:04.076Z,35.30
2022-08-04T15:32:49.840Z,35.30
2022-08-04T15:35:26.593Z,35.30
2022-08-04T15:37:56.805Z,35.30
2022-08-04T15:40:33.253Z,35.40
2022-08-04T15:43:01.208Z,35.50
2022-08-04T15:46:30.750Z,35.50
2022-08-04T15:48:03.233Z,35.40
2022-08-04T15:50:30.793Z,35.40
2022-08-04T15:53:12.704Z,35.30
2022-08-04T15:55:34.438Z,35.20
2022-08-04T15:58:02.505Z,34.80
2022-08-04T16:00:30.080Z,34.80
2022-08-04T16:02:57.693Z,34.70
2022-08-04T16:05:25.276Z,34.60
2022-08-04T16:08:07.915Z,34.50
2022-08-04T16:10:38.311Z,34.40
2022-08-04T16:13:11.482Z,34.30
2022-08-04T16:15:41.865Z,34.20
2022-08-04T16:18:14.165Z,34.10
2022-08-04T16:20:37.768Z,34.00
2022-08-04T16:23:37.437Z,34.00
2022-08-04T16:25:45.062Z,33.90
2022-08-04T16:28:40.181Z,33.70
2022-08-04T16:31:07.768Z,33.80
2022-08-04T16:33:43.581Z,33.70
2022-08-04T16:36:08.077Z,33.70
2022-08-04T16:38:32.053Z,33.60
2022-08-04T16:40:59.638Z,33.60
2022-08-04T16:43:29.997Z,33.50
2022-08-04T16:46:03.297Z,33.40
2022-08-04T16:48:33.607Z,33.50
2022-08-04T16:51:07.684Z,33.30
2022-08-04T16:54:04.184Z,33.30
2022-08-04T16:56:05.507Z,33.20
2022-08-04T16:58:33.918Z,33.10
2022-08-04T17:01:10.272Z,33.10
2022-08-04T17:03:37.731Z,33.00
2022-08-04T17:06:11.036Z,33.00
2022-08-04T17:08:38.615Z,33.00
2022-08-04T17:11:06.253Z,33.00
2022-08-04T17:14:03.975Z,33.00
2022-08-04T17:16:01.533Z,33.20
2022-08-04T17:18:29.873Z,33.30
2022-08-04T17:21:01.351Z,33.30
2022-08-04T17:24:13.427Z,33.30
2022-08-04T17:26:12.098Z,33.40
2022-08-04T17:28:47.248Z,33.40
2022-08-04T17:31:05.710Z,33.50
2022-08-04T17:33:54.750Z,33.60
2022-08-04T17:36:00.908Z,33.70
2022-08-04T17:38:34.249Z,33.80
2022-08-04T17:41:18.865Z,34.00
2022-08-04T17:44:02.764Z,34.30
2022-08-04T17:46:15.953Z,34.40
2022-08-04T17:48:43.534Z,34.30
2022-08-04T17:51:17.976Z,34.10
2022-08-04T17:53:45.642Z,34.10
2022-08-04T17:56:52.002Z,33.90
2022-08-04T17:59:57.228Z,33.80
2022-08-04T18:01:52.214Z,33.70
2022-08-04T18:04:36.524Z,33.60
2022-08-04T18:07:04.109Z,33.50
2022-08-04T18:09:56.856Z,33.30
2022-08-04T18:12:02.950Z,33.10
2022-08-04T18:14:45.676Z,33.10
2022-08-04T18:17:17.969Z,33.00
2022-08-04T18:19:52.778Z,32.80
2022-08-04T18:22:27.720Z,32.70
2022-08-04T18:24:56.752Z,32.60
2022-08-04T18:27:16.354Z,32.30
2022-08-04T18:30:14.698Z,32.30
2022-08-04T18:32:11.741Z,32.20
2022-08-04T18:34:40.842Z,32.10
2022-08-04T18:38:03.314Z,31.90
2022-08-04T18:40:09.389Z,31.90
2022-08-04T18:42:04.433Z,31.70
2022-08-04T18:44:30.934Z,31.60
2022-08-04T18:46:57.262Z,31.60
2022-08-04T18:51:52.769Z,31.30
2022-08-04T18:54:20.339Z,31.20
2022-08-04T18:57:24.907Z,31.40
2022-08-04T18:59:15.911Z,31.30
2022-08-04T19:02:13.348Z,31.10
2022-08-04T19:04:32.282Z,30.80
2022-08-04T19:09:26.482Z,30.70
2022-08-04T19:11:55.497Z,30.50
2022-08-04T19:14:22.450Z,30.30
2022-08-04T19:16:50.030Z,30.20
2022-08-04T19:19:17.644Z,30.10
2022-08-04T19:24:32.030Z,29.80
2022-08-04T19:26:40.495Z,29.60
2022-08-04T19:29:08.906Z,29.30
2022-08-04T19:31:41.538Z,29.30
2022-08-04T19:34:04.845Z,29.20
2022-08-04T19:36:32.435Z,28.90
2022-08-04T19:39:00.120Z,28.80
2022-08-04T19:41:27.624Z,28.70
2022-08-04T19:43:55.206Z,28.60
2022-08-04T19:46:24.936Z,28.50
2022-08-04T19:48:59.488Z,28.40
2022-08-04T19:51:19.160Z,28.50
2022-08-04T19:53:47.513Z,28.50
2022-08-04T19:56:15.146Z,28.50
2022-08-04T19:58:42.730Z,28.30
2022-08-04T20:01:31.384Z,28.40
2022-08-04T20:04:08.349Z,28.30
2022-08-04T20:06:05.481Z,28.40
2022-08-04T20:08:33.061Z,28.30
2022-08-04T20:11:01.033Z,28.20
2022-08-04T20:13:37.063Z,28.10
2022-08-04T20:18:36.041Z,28.10
2022-08-04T20:20:52.184Z,28.30
2022-08-04T20:23:19.759Z,28.20
2022-08-04T20:25:47.433Z,28.00
2022-08-04T20:28:36.267Z,27.90
2022-08-04T20:30:42.550Z,28.00
2022-08-04T20:33:10.172Z,28.10
2022-08-04T20:35:45.871Z,28.20
2022-08-04T20:38:05.331Z,28.00
2022-08-04T20:40:33.713Z,27.90
2022-08-04T20:43:02.056Z,27.80
2022-08-04T20:45:56.762Z,27.80
2022-08-04T20:47:57.253Z,27.70
2022-08-04T20:50:29.631Z,27.60
2022-08-04T20:52:52.401Z,27.70
2022-08-04T20:55:20.024Z,27.60
2022-08-04T20:57:50.648Z,27.50
2022-08-04T21:00:15.221Z,27.60
2022-08-04T21:02:44.544Z,27.50
2022-08-04T21:05:11.236Z,27.50
2022-08-04T21:07:41.902Z,27.50
2022-08-04T21:10:07.251Z,27.20
2022-08-04T21:12:34.826Z,27.20
2022-08-04T21:15:13.939Z,27.10
2022-08-04T21:17:58.277Z,27.20
2022-08-04T21:19:59.121Z,27.10
2022-08-04T21:22:33.120Z,27.10
2022-08-04T21:24:54.879Z,27.00
2022-08-04T21:27:22.623Z,26.90
2022-08-04T21:29:50.018Z,26.90
2022-08-04T21:32:18.683Z,26.80
2022-08-04T21:34:46.265Z,26.70
2022-08-04T21:37:14.655Z,26.50
2022-08-04T21:42:28.136Z,26.40
2022-08-04T21:44:37.373Z,26.50
2022-08-04T21:47:05.241Z,26.40
2022-08-04T21:49:32.835Z,26.30
2022-08-04T21:52:07.285Z,26.30
2022-08-04T21:54:28.780Z,26.20
2022-08-04T21:56:57.128Z,25.90
2022-08-04T21:59:31.059Z,25.90
2022-08-04T22:01:54.799Z,25.70
2022-08-04T22:04:21.768Z,25.70
2022-08-04T22:06:52.261Z,25.40
2022-08-04T22:09:17.076Z,25.20
2022-08-04T22:11:50.259Z,24.90
2022-08-04T22:14:12.236Z,24.70
2022-08-04T22:16:40.617Z,24.60
2022-08-04T22:19:10.922Z,24.50
2022-08-04T22:21:39.321Z,24.50
2022-08-04T22:24:05.082Z,24.40
2022-08-04T22:26:32.655Z,24.30
2022-08-04T22:29:00.229Z,24.20
2022-08-04T22:31:27.852Z,24.40
2022-08-04T22:33:56.270Z,24.70
2022-08-04T22:36:24.669Z,24.50
2022-08-04T22:39:00.290Z,24.40
2022-08-04T22:41:19.153Z,24.40
2022-08-04T22:43:47.506Z,24.40
2022-08-04T22:46:21.470Z,24.40
2022-08-04T22:48:49.250Z,24.30
2022-08-04T22:51:17.278Z,24.20
2022-08-04T22:53:48.776Z,24.10
2022-08-04T22:56:13.833Z,24.00
2022-08-04T22:58:45.172Z,23.80
2022-08-04T23:01:10.850Z,23.80
2022-08-04T23:03:38.850Z,23.80
2022-08-04T23:06:10.481Z,23.70
2022-08-04T23:08:38.067Z,23.80
2022-08-04T23:11:08.935Z,23.80
2022-08-04T23:13:37.169Z,23.70
2022-08-04T23:16:09.696Z,23.60
2022-08-04T23:18:36.984Z,23.70
2022-08-04T23:21:05.170Z,23.70
2022-08-04T23:23:33.031Z,23.60
2022-08-04T23:26:08.523Z,23.50
2022-08-04T23:28:30.501Z,23.40
2022-08-04T23:30:58.154Z,23.40
2022-08-04T23:33:49.062Z,23.30
2022-08-04T23:35:56.512Z,23.30
2022-08-04T23:38:30.643Z,23.20
2022-08-04T23:40:55.388Z,23.10
2022-08-04T23:43:23.646Z,23.00
2022-08-04T23:46:07.786Z,23.00
2022-08-04T23:48:21.244Z,22.90
2022-08-04T23:50:49.037Z,22.90
2022-08-04T23:53:18.608Z,22.90
2022-08-04T23:55:45.139Z,22.80
2022-08-04T23:58:20.911Z,22.80
